Time;durP1;ratioP1;P1;durP2;ratioP2;P2;SDS_P1;SDS_P2;PMS_P1;PMS_P2;Temp;Humidity;BMP_temperature;BMP_pressure;BME280_temperature;BME280_humidity;BME280_pressure;Samples;Min_cycle;Max_cycle;Signal;HPM_P1;HPM_P2
2024/03/28 00:00:30;;;;;;;3.90;3.40;;;;;;;;;;4994799;28;20471;-66
2024/03/28 00:02:56;;;;;;;4.68;3.05;;;;;;;;;;4994769;28;20058;-67
2024/03/28 00:05:21;;;;;;;5.07;3.22;;;;;;;;;;4994742;28;20485;-67
2024/03/28 00:07:46;;;;;;;5.65;3.60;;;;;;;;;;4960810;28;20030;-67
2024/03/28 00:10:12;;;;;;;5.57;3.47;;;;;;;;;;4994016;28;20482;-66
2024/03/28 00:12:37;;;;;;;7.20;3.20;;;;;;;;;;4994657;28;20441;-66
2024/03/28 00:15:03;;;;;;;3.65;2.70;;;;;;;;;;4977004;28;20425;-66
2024/03/28 00:17:28;;;;;;;8.27;3.15;;;;;;;;;;4994706;28;20030;-66
2024/03/28 00:19:54;;;;;;;3.90;2.45;;;;;;;;;;4994596;28;20080;-66
2024/03/28 00:22:19;;;;;;;5.20;3.05;;;;;;;;;;5009617;28;20484;-66
2024/03/28 00:24:50;;;;;;;6.30;3.10;;;;;;;;;;4994423;28;20034;-66
2024/03/28 00:27:15;;;;;;;3.33;2.80;;;;;;;;;;4994783;28;20026;-67
2024/03/28 00:29:40;;;;;;;2.78;2.50;;;;;;;;;;4994664;28;20462;-67
2024/03/28 00:32:06;;;;;;;7.05;3.10;;;;;;;;;;4994389;28;20018;-67
2024/03/28 00:34:31;;;;;;;4.75;2.70;;;;;;;;;;4994414;28;20026;-67
2024/03/28 00:36:56;;;;;;;5.72;2.88;;;;;;;;;;4976766;28;20449;-67
2024/03/28 00:39:22;;;;;;;6.28;2.88;;;;;;;;;;5009370;28;20088;-68
2024/03/28 00:41:47;;;;;;;4.90;2.42;;;;;;;;;;4994129;28;20065;-68
2024/03/28 00:44:13;;;;;;;6.63;2.95;;;;;;;;;;4994396;28;20057;-65
2024/03/28 00:46:38;;;;;;;5.40;2.65;;;;;;;;;;4994184;28;20097;-65
2024/03/28 00:49:03;;;;;;;6.75;3.30;;;;;;;;;;4994237;28;20665;-65
2024/03/28 00:51:29;;;;;;;7.65;2.92;;;;;;;;;;4994181;28;20030;-65
2024/03/28 00:53:54;;;;;;;3.83;2.55;;;;;;;;;;4976866;28;20389;-66
2024/03/28 00:56:19;;;;;;;4.00;2.58;;;;;;;;;;4994069;28;20045;-66
2024/03/28 00:58:45;;;;;;;3.38;2.25;;;;;;;;;;4994160;28;20033;-65
2024/03/28 01:01:10;;;;;;;4.30;2.05;;;;;;;;;;4994399;28;20030;-65
2024/03/28 01:03:36;;;;;;;5.53;2.60;;;;;;;;;;5009137;28;20034;-65
2024/03/28 01:06:01;;;;;;;4.13;2.40;;;;;;;;;;4976717;28;20081;-65
2024/03/28 01:08:27;;;;;;;6.47;2.33;;;;;;;;;;4993998;28;20046;-65
2024/03/28 01:10:53;;;;;;;6.10;2.17;;;;;;;;;;4993928;28;20057;-67
2024/03/28 01:13:19;;;;;;;5.10;2.50;;;;;;;;;;4993993;28;20081;-68
2024/03/28 01:15:44;;;;;;;4.05;2.22;;;;;;;;;;4993883;28;20022;-67
2024/03/28 01:18:10;;;;;;;8.05;2.65;;;;;;;;;;4993954;28;20389;-67
2024/03/28 01:20:35;;;;;;;8.57;2.50;;;;;;;;;;4996593;28;20029;-67
2024/03/28 01:23:01;;;;;;;8.15;2.20;;;;;;;;;;4999994;28;20113;-68
2024/03/28 01:25:27;;;;;;;5.80;2.65;;;;;;;;;;4998656;28;20486;-67
2024/03/28 01:27:52;;;;;;;5.28;2.65;;;;;;;;;;4997711;28;20031;-67
2024/03/28 01:30:18;;;;;;;4.97;2.50;;;;;;;;;;4997716;28;20397;-68
2024/03/28 01:32:43;;;;;;;3.35;2.50;;;;;;;;;;4997506;28;20030;-69
2024/03/28 01:35:08;;;;;;;9.07;2.67;;;;;;;;;;4997475;28;20034;-69
2024/03/28 01:37:34;;;;;;;7.45;2.63;;;;;;;;;;4980395;28;20026;-69
2024/03/28 01:40:03;;;;;;;6.60;2.58;;;;;;;;;;4997581;28;20081;-67
2024/03/28 01:42:34;;;;;;;8.52;3.00;;;;;;;;;;4997080;28;20046;-68
2024/03/28 01:47:40;;;;;;;7.47;2.75;;;;;;;;;;5004022;23;20521;-69
2024/03/28 01:50:06;;;;;;;4.70;2.45;;;;;;;;;;4979882;28;20110;-70
2024/03/28 01:52:32;;;;;;;8.32;2.47;;;;;;;;;;4997448;28;20033;-70
2024/03/28 01:54:59;;;;;;;6.75;2.30;;;;;;;;;;4997053;28;20031;-70
2024/03/28 02:01:25;;;;;;;;;;;;;;;;;;4654361;23;20069;-70
2024/03/28 02:03:50;;;;;;;7.88;2.90;;;;;;;;;;4997540;28;19910;-70
2024/03/28 02:06:16;;;;;;;8.77;2.67;;;;;;;;;;4997235;28;20034;-70
2024/03/28 02:08:41;;;;;;;9.30;2.50;;;;;;;;;;4997122;28;20041;-70
2024/03/28 02:11:07;;;;;;;9.27;2.83;;;;;;;;;;4979820;28;20121;-70
2024/03/28 02:13:32;;;;;;;11.75;2.95;;;;;;;;;;4979715;28;20026;-70
2024/03/28 02:15:58;;;;;;;8.40;2.92;;;;;;;;;;4979293;28;20034;-67
2024/03/28 02:18:23;;;;;;;13.57;3.22;;;;;;;;;;4979656;28;20493;-64
2024/03/28 02:20:48;;;;;;;8.55;3.17;;;;;;;;;;4996677;28;20088;-64
2024/03/28 02:23:18;;;;;;;10.63;2.85;;;;;;;;;;5011847;28;20034;-64
2024/03/28 02:25:43;;;;;;;9.33;3.33;;;;;;;;;;4996924;28;20053;-64
2024/03/28 02:30:44;;;;;;;12.55;3.28;;;;;;;;;;5013984;28;20553;-65
2024/03/28 02:33:10;;;;;;;15.95;3.70;;;;;;;;;;5015144;28;20109;-65
2024/03/28 02:35:35;;;;;;;12.70;2.75;;;;;;;;;;4998294;28;20394;-65
2024/03/28 02:38:00;;;;;;;9.05;3.20;;;;;;;;;;5015993;28;20402;-65
2024/03/28 02:40:26;;;;;;;9.05;3.20;;;;;;;;;;5015895;28;20084;-65
2024/03/28 02:42:51;;;;;;;11.85;3.30;;;;;;;;;;5016013;28;20026;-66
2024/03/28 02:45:17;;;;;;;10.05;2.92;;;;;;;;;;5031068;28;20040;-66
2024/03/28 02:47:42;;;;;;;12.95;3.20;;;;;;;;;;5015927;28;20026;-68
2024/03/28 02:50:08;;;;;;;14.38;3.85;;;;;;;;;;5031013;28;20049;-68
2024/03/28 02:52:34;;;;;;;15.73;3.70;;;;;;;;;;5015734;28;20092;-68
2024/03/28 02:55:00;;;;;;;15.93;3.78;;;;;;;;;;5015681;28;20052;-68
2024/03/28 02:57:25;;;;;;;20.38;3.95;;;;;;;;;;5015849;28;20525;-68
2024/03/28 02:59:51;;;;;;;17.67;3.50;;;;;;;;;;5016329;28;20029;-69
2024/03/28 03:02:16;;;;;;;16.70;3.75;;;;;;;;;;5016605;28;20029;-66
2024/03/28 03:04:41;;;;;;;13.77;3.20;;;;;;;;;;5016261;28;20028;-66
2024/03/28 03:07:07;;;;;;;15.27;3.78;;;;;;;;;;5030976;28;20030;-66
2024/03/28 03:09:32;;;;;;;15.32;3.97;;;;;;;;;;5016017;28;20034;-66
2024/03/28 03:11:58;;;;;;;13.85;4.40;;;;;;;;;;4997682;28;20462;-66
2024/03/28 03:14:23;;;;;;;13.95;3.88;;;;;;;;;;5013958;28;20033;-66
2024/03/28 03:16:49;;;;;;;19.27;4.03;;;;;;;;;;5015065;28;20108;-66
2024/03/28 03:19:16;;;;;;;15.75;3.20;;;;;;;;;;5015191;28;20113;-66
2024/03/28 03:21:43;;;;;;;19.58;3.88;;;;;;;;;;5015166;28;20105;-68
2024/03/28 03:24:12;;;;;;;12.30;3.97;;;;;;;;;;5015133;28;20030;-64
2024/03/28 03:26:37;;;;;;;23.77;4.40;;;;;;;;;;5015122;28;20040;-65
2024/03/28 03:34:36;;;;;;;14.63;3.83;;;;;;;;;;5014837;28;20053;-70
2024/03/28 03:37:09;;;;;;;15.45;4.45;;;;;;;;;;5030238;28;20030;-70
2024/03/28 03:39:34;;;;;;;14.40;3.83;;;;;;;;;;5014945;28;20109;-70
2024/03/28 03:42:00;;;;;;;18.70;3.78;;;;;;;;;;5014758;28;20113;-65
2024/03/28 03:44:25;;;;;;;17.50;4.18;;;;;;;;;;5014550;28;20057;-66
2024/03/28 03:46:50;;;;;;;19.17;3.88;;;;;;;;;;5014696;28;20073;-65
2024/03/28 03:49:16;;;;;;;21.27;5.32;;;;;;;;;;4997163;28;20084;-65
2024/03/28 03:51:41;;;;;;;18.70;4.85;;;;;;;;;;5014710;28;20443;-65
2024/03/28 03:54:07;;;;;;;20.90;4.55;;;;;;;;;;5014651;28;20049;-65
2024/03/28 03:56:32;;;;;;;19.33;4.35;;;;;;;;;;5029642;28;20048;-65
2024/03/28 03:58:57;;;;;;;19.27;4.50;;;;;;;;;;5014416;28;20097;-65
2024/03/28 04:01:23;;;;;;;25.25;4.93;;;;;;;;;;5014356;28;20036;-67
2024/03/28 04:07:00;;;;;;;21.08;4.70;;;;;;;;;;5012818;28;20111;-68
2024/03/28 04:09:25;;;;;;;22.15;5.15;;;;;;;;;;5014654;28;20034;-66
2024/03/28 04:11:50;;;;;;;21.30;5.28;;;;;;;;;;5014227;28;20100;-67
2024/03/28 04:14:16;;;;;;;20.27;5.53;;;;;;;;;;5014180;28;20040;-67
2024/03/28 04:16:52;;;;;;;17.20;4.68;;;;;;;;;;5026862;23;20077;-66
2024/03/28 04:19:17;;;;;;;28.58;5.30;;;;;;;;;;5014281;28;20101;-66
2024/03/28 04:21:43;;;;;;;21.63;5.00;;;;;;;;;;5014118;28;20493;-67
2024/03/28 04:24:10;;;;;;;28.05;4.78;;;;;;;;;;4996571;28;20026;-67
2024/03/28 04:26:35;;;;;;;30.25;4.57;;;;;;;;;;5014227;28;20469;-67
2024/03/28 04:29:01;;;;;;;20.35;4.70;;;;;;;;;;5014011;28;20030;-69
2024/03/28 04:31:26;;;;;;;32.10;6.03;;;;;;;;;;5029049;28;20476;-69
2024/03/28 04:33:52;;;;;;;22.88;4.82;;;;;;;;;;5014205;28;20044;-70
2024/03/28 04:36:18;;;;;;;22.88;4.82;;;;;;;;;;5014539;28;20033;-69
2024/03/28 04:38:43;;;;;;;23.98;4.88;;;;;;;;;;5013372;28;20108;-69
2024/03/28 04:41:09;;;;;;;21.70;4.88;;;;;;;;;;5014599;28;20032;-72
2024/03/28 04:43:35;;;;;;;19.52;5.18;;;;;;;;;;5013880;28;20087;-72
2024/03/28 04:46:01;;;;;;;30.20;5.50;;;;;;;;;;5013606;28;20034;-72
2024/03/28 04:48:26;;;;;;;27.98;5.40;;;;;;;;;;4994011;28;20037;-72
2024/03/28 04:50:51;;;;;;;23.77;4.65;;;;;;;;;;5011573;28;20040;-71
2024/03/28 04:53:17;;;;;;;27.25;5.32;;;;;;;;;;4977871;28;20018;-71
2024/03/28 04:55:42;;;;;;;26.80;5.50;;;;;;;;;;4996022;28;20052;-70
2024/03/28 04:58:07;;;;;;;21.02;5.03;;;;;;;;;;4998140;28;20030;-71
2024/03/28 05:00:33;;;;;;;24.42;4.63;;;;;;;;;;4998079;28;20036;-73
2024/03/28 05:02:58;;;;;;;30.85;5.97;;;;;;;;;;5015686;28;20034;-73
2024/03/28 05:05:24;;;;;;;26.17;6.00;;;;;;;;;;5015585;28;20025;-73
2024/03/28 05:07:49;;;;;;;23.30;5.07;;;;;;;;;;5015645;28;20041;-73
2024/03/28 05:10:15;;;;;;;28.45;6.28;;;;;;;;;;5015502;28;20038;-71
2024/03/28 05:12:40;;;;;;;18.35;4.97;;;;;;;;;;4998690;28;20030;-73
2024/03/28 05:15:06;;;;;;;25.17;5.18;;;;;;;;;;5017427;28;20457;-69
2024/03/28 05:17:31;;;;;;;27.92;5.75;;;;;;;;;;4999673;28;20033;-71
2024/03/28 05:19:57;;;;;;;24.20;4.72;;;;;;;;;;5017493;28;20473;-63
2024/03/28 05:22:22;;;;;;;28.67;5.57;;;;;;;;;;5018648;28;20053;-70
2024/03/28 05:24:47;;;;;;;25.27;5.63;;;;;;;;;;5018775;28;20037;-70
2024/03/28 05:27:13;;;;;;;24.98;5.45;;;;;;;;;;5017819;28;20084;-70
2024/03/28 05:29:41;;;;;;;23.35;6.13;;;;;;;;;;5017199;28;20088;-71
2024/03/28 05:32:09;;;;;;;26.55;5.60;;;;;;;;;;4999632;28;20052;-70
2024/03/28 05:34:35;;;;;;;37.40;5.63;;;;;;;;;;5017547;28;20113;-70
2024/03/28 05:37:00;;;;;;;26.85;4.65;;;;;;;;;;5000040;28;20132;-70
2024/03/28 05:39:27;;;;;;;22.88;4.78;;;;;;;;;;4999449;28;20102;-70
2024/03/28 05:41:52;;;;;;;30.13;5.03;;;;;;;;;;5017582;28;20034;-70
2024/03/28 05:44:17;;;;;;;27.00;6.00;;;;;;;;;;5000051;28;20030;-70
2024/03/28 05:46:43;;;;;;;33.65;5.18;;;;;;;;;;5016858;28;20018;-70
2024/03/28 05:49:08;;;;;;;23.77;4.70;;;;;;;;;;4999672;28;20095;-70
2024/03/28 05:51:34;;;;;;;24.63;4.65;;;;;;;;;;5016926;28;20029;-65
2024/03/28 05:53:59;;;;;;;26.33;5.65;;;;;;;;;;4999505;28;20139;-67
2024/03/28 05:56:24;;;;;;;26.05;4.53;;;;;;;;;;5016564;28;20508;-68
2024/03/28 05:58:50;;;;;;;24.10;5.13;;;;;;;;;;5016897;28;20038;-67
2024/03/28 06:01:16;;;;;;;22.52;4.68;;;;;;;;;;5017221;28;20037;-66
2024/03/28 06:03:42;;;;;;;26.25;4.68;;;;;;;;;;5016579;28;20038;-71
2024/03/28 06:06:07;;;;;;;30.08;5.38;;;;;;;;;;4998950;28;20076;-71
2024/03/28 06:08:34;;;;;;;20.63;4.25;;;;;;;;;;4998960;28;20038;-72
2024/03/28 06:11:00;;;;;;;23.30;4.32;;;;;;;;;;4998911;28;20477;-71
2024/03/28 06:13:30;;;;;;;28.65;4.63;;;;;;;;;;4998868;28;20029;-71
2024/03/28 06:15:56;;;;;;;26.77;4.90;;;;;;;;;;5016428;28;20041;-71
2024/03/28 06:18:22;;;;;;;25.48;5.30;;;;;;;;;;4998685;28;20046;-71
2024/03/28 06:20:47;;;;;;;26.80;4.35;;;;;;;;;;4998869;28;20037;-71
2024/03/28 06:23:12;;;;;;;33.30;5.28;;;;;;;;;;5016242;28;20378;-70
2024/03/28 06:25:41;;;;;;;24.00;4.65;;;;;;;;;;5025019;23;20065;-70
2024/03/28 06:28:08;;;;;;;34.63;6.03;;;;;;;;;;5031735;28;20026;-70
2024/03/28 06:30:35;;;;;;;27.63;5.00;;;;;;;;;;5016657;28;20113;-69
2024/03/28 06:33:01;;;;;;;21.67;4.20;;;;;;;;;;5016381;28;20014;-69
2024/03/28 06:39:29;;;;;;;24.67;4.50;;;;;;;;;;5005016;23;20061;-72
2024/03/28 06:41:54;;;;;;;27.45;5.00;;;;;;;;;;4995172;28;20027;-72
2024/03/28 06:44:19;;;;;;;24.33;5.13;;;;;;;;;;4995126;28;20034;-72
2024/03/28 06:46:45;;;;;;;22.75;4.65;;;;;;;;;;4994949;28;20376;-72
2024/03/28 06:49:10;;;;;;;26.30;5.40;;;;;;;;;;4993070;28;20066;-72
2024/03/28 06:51:35;;;;;;;25.05;5.28;;;;;;;;;;4994223;28;20022;-72
2024/03/28 06:54:01;;;;;;;25.02;5.32;;;;;;;;;;4994158;28;20037;-71
2024/03/28 06:56:26;;;;;;;16.05;4.10;;;;;;;;;;4994066;28;20113;-72
2024/03/28 06:58:51;;;;;;;26.02;4.28;;;;;;;;;;4994093;28;20518;-71
2024/03/28 07:01:17;;;;;;;28.35;5.07;;;;;;;;;;4994147;28;20022;-72
2024/03/28 07:03:42;;;;;;;16.48;4.25;;;;;;;;;;4995696;28;20474;-72
2024/03/28 07:06:07;;;;;;;19.55;4.95;;;;;;;;;;4978400;28;20474;-72
2024/03/28 07:08:33;;;;;;;21.70;5.25;;;;;;;;;;4996348;28;20066;-72
2024/03/28 07:11:00;;;;;;;22.98;4.95;;;;;;;;;;4995742;28;20038;-72
2024/03/28 07:13:26;;;;;;;21.52;4.95;;;;;;;;;;4995722;28;20022;-71
2024/03/28 07:15:51;;;;;;;26.20;5.65;;;;;;;;;;5010857;23;20048;-69
2024/03/28 07:18:16;;;;;;;23.33;5.40;;;;;;;;;;5014045;28;20033;-68
2024/03/28 07:20:42;;;;;;;19.15;4.88;;;;;;;;;;5015195;28;20033;-68
2024/03/28 07:23:08;;;;;;;24.27;5.43;;;;;;;;;;5015384;28;20034;-68
2024/03/28 07:25:33;;;;;;;20.90;4.25;;;;;;;;;;4997513;28;20108;-68
2024/03/28 07:27:59;;;;;;;20.90;4.68;;;;;;;;;;5015331;28;20061;-68
2024/03/28 07:30:24;;;;;;;22.67;4.70;;;;;;;;;;5015019;28;20519;-69
2024/03/28 07:32:49;;;;;;;22.67;4.85;;;;;;;;;;5014933;28;20076;-69
2024/03/28 07:35:15;;;;;;;29.65;5.45;;;;;;;;;;5015146;28;20021;-69
2024/03/28 07:37:41;;;;;;;25.98;4.88;;;;;;;;;;5015116;28;20030;-70
2024/03/28 07:40:09;;;;;;;19.80;4.35;;;;;;;;;;5015605;28;20022;-70
2024/03/28 07:42:35;;;;;;;15.48;4.35;;;;;;;;;;5015800;28;20065;-70
2024/03/28 07:45:00;;;;;;;22.50;4.97;;;;;;;;;;5015276;28;20041;-70
2024/03/28 07:47:25;;;;;;;26.65;5.47;;;;;;;;;;4997131;28;20385;-70
2024/03/28 07:49:51;;;;;;;19.52;5.47;;;;;;;;;;5015186;28;20111;-69
2024/03/28 07:52:16;;;;;;;22.17;5.38;;;;;;;;;;5029821;28;20096;-69
2024/03/28 07:54:41;;;;;;;15.20;4.40;;;;;;;;;;5014891;28;20029;-69
2024/03/28 07:57:07;;;;;;;26.77;4.75;;;;;;;;;;4996862;28;20532;-69
2024/03/28 07:59:32;;;;;;;22.48;3.97;;;;;;;;;;5014509;28;20477;-69
2024/03/28 08:01:58;;;;;;;18.85;4.60;;;;;;;;;;5014464;28;20140;-69
2024/03/28 08:04:23;;;;;;;13.27;4.03;;;;;;;;;;5014971;28;20053;-69
2024/03/28 08:06:49;;;;;;;20.77;4.05;;;;;;;;;;5014405;28;20053;-69
2024/03/28 08:11:44;;;;;;;;;;;;;;;;;;5012206;28;20481;-69
2024/03/28 08:14:11;;;;;;;13.88;3.42;;;;;;;;;;5014557;28;19916;-69
2024/03/28 08:16:37;;;;;;;8.75;2.33;;;;;;;;;;5014198;28;20493;-69
2024/03/28 08:19:02;;;;;;;12.15;2.83;;;;;;;;;;5014189;28;20117;-69
2024/03/28 08:21:28;;;;;;;8.02;2.33;;;;;;;;;;5014182;28;20067;-73
2024/03/28 08:23:54;;;;;;;8.50;2.47;;;;;;;;;;5013220;28;20087;-73
2024/03/28 08:26:20;;;;;;;10.52;2.53;;;;;;;;;;5014337;28;20468;-73
2024/03/28 08:28:46;;;;;;;9.27;2.70;;;;;;;;;;5013884;28;20026;-73
2024/03/28 08:31:12;;;;;;;11.98;2.60;;;;;;;;;;5013669;28;20022;-74
2024/03/28 08:33:38;;;;;;;8.32;2.60;;;;;;;;;;5013978;28;20034;-74
2024/03/28 08:36:05;;;;;;;9.63;2.70;;;;;;;;;;5012645;28;20026;-74
2024/03/28 08:38:30;;;;;;;9.45;2.03;;;;;;;;;;5014508;28;20034;-73
2024/03/28 08:40:58;;;;;;;6.85;2.50;;;;;;;;;;5013933;28;20458;-73
2024/03/28 08:43:23;;;;;;;3.63;1.60;;;;;;;;;;5014163;28;20076;-70
2024/03/28 08:45:49;;;;;;;6.13;1.60;;;;;;;;;;5014139;28;20030;-70
2024/03/28 08:48:14;;;;;;;2.63;1.73;;;;;;;;;;5014143;28;20077;-70
2024/03/28 08:53:24;;;;;;;4.47;1.52;;;;;;;;;;5051492;28;20044;-72
2024/03/28 08:55:50;;;;;;;4.97;1.83;;;;;;;;;;5052021;28;20117;-72
2024/03/28 08:58:15;;;;;;;3.08;1.02;;;;;;;;;;5053607;28;20088;-72
2024/03/28 09:00:40;;;;;;;4.40;1.35;;;;;;;;;;5053387;28;20163;-74
2024/03/28 09:03:06;;;;;;;1.73;1.20;;;;;;;;;;5053643;28;20036;-74
2024/03/28 09:05:32;;;;;;;2.05;0.98;;;;;;;;;;5053539;28;20033;-74
2024/03/28 09:07:58;;;;;;;1.30;1.20;;;;;;;;;;5053328;28;20020;-74
2024/03/28 09:10:24;;;;;;;2.55;1.25;;;;;;;;;;5053281;28;20036;-73
2024/03/28 09:12:51;;;;;;;2.03;1.10;;;;;;;;;;5053523;28;20107;-73
2024/03/28 09:15:17;;;;;;;2.72;1.23;;;;;;;;;;5053109;28;20083;-73
2024/03/28 09:17:42;;;;;;;2.85;1.15;;;;;;;;;;5053472;28;20024;-73
2024/03/28 09:20:08;;;;;;;3.38;1.08;;;;;;;;;;5053181;28;20491;-73
2024/03/28 09:22:34;;;;;;;3.05;1.25;;;;;;;;;;5053459;28;20456;-72
2024/03/28 09:25:03;;;;;;;4.55;1.15;;;;;;;;;;5035606;28;20029;-72
2024/03/28 09:27:28;;;;;;;2.95;1.20;;;;;;;;;;5053353;28;20061;-72
2024/03/28 09:29:55;;;;;;;7.38;1.35;;;;;;;;;;5051938;28;20059;-72
2024/03/28 09:32:20;;;;;;;4.38;1.33;;;;;;;;;;5053601;28;20104;-72
2024/03/28 09:34:48;;;;;;;0.73;0.73;;;;;;;;;;5053083;28;20025;-72
2024/03/28 09:37:14;;;;;;;0.82;0.80;;;;;;;;;;5053256;28;20037;-72
2024/03/28 09:39:39;;;;;;;4.43;1.25;;;;;;;;;;5053007;28;20113;-72
2024/03/28 09:42:07;;;;;;;0.30;0.30;;;;;;;;;;5055598;28;20563;-72
2024/03/28 09:44:33;;;;;;;3.50;1.27;;;;;;;;;;5039198;28;20116;-72
2024/03/28 09:46:59;;;;;;;9.85;1.88;;;;;;;;;;5056975;28;20422;-72
2024/03/28 09:49:26;;;;;;;3.60;0.50;;;;;;;;;;5055491;28;20108;-72
2024/03/28 09:51:54;;;;;;;9.18;1.40;;;;;;;;;;5056484;28;20041;-72
2024/03/28 09:54:20;;;;;;;2.58;0.85;;;;;;;;;;5056890;28;20037;-71
2024/03/28 09:56:45;;;;;;;1.13;0.88;;;;;;;;;;5056465;28;20107;-70
2024/03/28 09:59:11;;;;;;;6.78;0.90;;;;;;;;;;5056584;28;20029;-70
2024/03/28 10:01:38;;;;;;;3.72;1.20;;;;;;;;;;5056675;28;20100;-70
2024/03/28 10:04:04;;;;;;;1.55;0.70;;;;;;;;;;5056667;28;20029;-69
2024/03/28 10:06:30;;;;;;;3.55;0.93;;;;;;;;;;5056341;28;20121;-69
2024/03/28 10:08:55;;;;;;;2.72;0.90;;;;;;;;;;5056263;28;20033;-69
2024/03/28 10:11:21;;;;;;;1.55;1.30;;;;;;;;;;5056248;28;20370;-69
2024/03/28 10:13:46;;;;;;;3.60;1.05;;;;;;;;;;5054961;28;20024;-70
2024/03/28 10:16:15;;;;;;;7.72;1.30;;;;;;;;;;5056326;28;20079;-70
2024/03/28 10:18:41;;;;;;;2.53;0.82;;;;;;;;;;5056361;28;20029;-69
2024/03/28 10:21:07;;;;;;;2.75;0.75;;;;;;;;;;5056031;28;20075;-69
2024/03/28 10:23:33;;;;;;;2.13;0.55;;;;;;;;;;5054752;28;20033;-69
2024/03/28 10:26:02;;;;;;;2.50;0.63;;;;;;;;;;5054699;28;20109;-69
2024/03/28 10:28:29;;;;;;;1.33;0.57;;;;;;;;;;5056190;28;20024;-69
2024/03/28 10:30:54;;;;;;;0.80;0.45;;;;;;;;;;5056370;28;20033;-66
2024/03/28 10:33:20;;;;;;;1.90;0.70;;;;;;;;;;5056415;28;20036;-67
2024/03/28 10:35:56;;;;;;;2.28;1.05;;;;;;;;;;5055702;28;20116;-68
2024/03/28 10:38:21;;;;;;;7.35;1.02;;;;;;;;;;5055702;28;20362;-68
2024/03/28 10:40:48;;;;;;;1.38;0.90;;;;;;;;;;5054698;28;20036;-67
2024/03/28 10:43:15;;;;;;;2.22;0.60;;;;;;;;;;5054370;28;20064;-68
2024/03/28 10:45:41;;;;;;;1.98;1.23;;;;;;;;;;5055604;28;20112;-68
2024/03/28 10:48:14;;;;;;;1.27;1.00;;;;;;;;;;5055491;28;20037;-68
2024/03/28 10:50:43;;;;;;;5.10;0.77;;;;;;;;;;5055819;28;20032;-68
2024/03/28 10:53:13;;;;;;;2.63;0.68;;;;;;;;;;5054387;28;20467;-68
2024/03/28 10:55:42;;;;;;;2.53;0.70;;;;;;;;;;5055288;28;20033;-65
2024/03/28 10:58:08;;;;;;;7.85;0.98;;;;;;;;;;5055616;28;20100;-65
2024/03/28 11:00:34;;;;;;;0.68;0.57;;;;;;;;;;5054418;28;20033;-65
2024/03/28 11:03:01;;;;;;;2.50;0.73;;;;;;;;;;5055582;28;20096;-65
2024/03/28 11:05:29;;;;;;;11.80;1.58;;;;;;;;;;5055492;28;20025;-65
2024/03/28 11:07:55;;;;;;;2.03;1.10;;;;;;;;;;5053982;28;20087;-65
2024/03/28 11:10:21;;;;;;;0.40;0.40;;;;;;;;;;5055474;28;20082;-65
2024/03/28 11:12:46;;;;;;;9.90;1.67;;;;;;;;;;5055057;28;20424;-65
2024/03/28 11:15:18;;;;;;;6.15;1.05;;;;;;;;;;5054402;28;20033;-63
2024/03/28 11:17:45;;;;;;;0.80;0.40;;;;;;;;;;5055567;28;20033;-64
2024/03/28 11:20:15;;;;;;;1.45;0.93;;;;;;;;;;5055237;28;20017;-64
2024/03/28 11:22:40;;;;;;;2.00;1.48;;;;;;;;;;5054895;28;20103;-64
2024/03/28 11:25:46;;;;;;;1.52;0.70;;;;;;;;;;5053526;28;20565;-64
2024/03/28 11:28:12;;;;;;;3.92;0.70;;;;;;;;;;4977321;28;20081;-64
2024/03/28 11:30:58;;;;;;;1.55;0.80;;;;;;;;;;4993390;28;20030;-64
2024/03/28 11:33:30;;;;;;;1.15;0.80;;;;;;;;;;5030656;28;20128;-64
2024/03/28 11:35:57;;;;;;;1.10;1.00;;;;;;;;;;5054843;28;20044;-64
2024/03/28 11:38:22;;;;;;;1.55;0.90;;;;;;;;;;5053685;28;20032;-64
2024/03/28 11:40:48;;;;;;;2.85;0.90;;;;;;;;;;5054475;28;20021;-72
2024/03/28 11:43:14;;;;;;;1.02;0.70;;;;;;;;;;5054557;28;20416;-72
2024/03/28 11:45:53;;;;;;;1.65;1.05;;;;;;;;;;5054448;28;20032;-73
2024/03/28 11:48:20;;;;;;;6.47;1.10;;;;;;;;;;5054993;28;20033;-73
2024/03/28 11:50:45;;;;;;;1.63;1.00;;;;;;;;;;5054615;28;20021;-73
2024/03/28 11:53:11;;;;;;;0.55;0.52;;;;;;;;;;5052962;28;20047;-70
2024/03/28 11:55:41;;;;;;;2.25;0.95;;;;;;;;;;5053308;28;20032;-70
2024/03/28 11:58:22;;;;;;;3.08;0.70;;;;;;;;;;5054219;28;20388;-70
2024/03/28 12:00:47;;;;;;;1.02;0.85;;;;;;;;;;5054431;28;20029;-70
2024/03/28 12:03:13;;;;;;;1.85;0.88;;;;;;;;;;5052824;28;20389;-70
2024/03/28 12:05:39;;;;;;;8.32;2.00;;;;;;;;;;5036163;28;20032;-70
2024/03/28 12:08:04;;;;;;;5.07;2.58;;;;;;;;;;5054364;28;20170;-70
2024/03/28 12:10:30;;;;;;;18.13;1.75;;;;;;;;;;5054251;28;20037;-70
2024/03/28 12:12:56;;;;;;;4.03;0.60;;;;;;;;;;5054243;28;20112;-70
2024/03/28 12:15:21;;;;;;;3.08;1.25;;;;;;;;;;5053842;28;20159;-70
2024/03/28 12:17:47;;;;;;;0.88;0.75;;;;;;;;;;5052621;28;20423;-70
2024/03/28 12:20:20;;;;;;;2.53;1.15;;;;;;;;;;5053873;28;20025;-69
2024/03/28 12:22:47;;;;;;;5.68;1.25;;;;;;;;;;5052530;28;20500;-69
2024/03/28 12:25:12;;;;;;;2.70;0.77;;;;;;;;;;5053817;28;20033;-69
2024/03/28 12:27:38;;;;;;;0.60;0.60;;;;;;;;;;5053755;28;20029;-69
2024/03/28 12:30:05;;;;;;;3.70;0.93;;;;;;;;;;5053666;28;20037;-69
2024/03/28 12:32:31;;;;;;;2.50;0.90;;;;;;;;;;5053719;28;20017;-69
2024/03/28 12:34:56;;;;;;;1.70;1.13;;;;;;;;;;5053614;28;20564;-69
2024/03/28 12:37:22;;;;;;;0.75;0.60;;;;;;;;;;5052347;28;20035;-69
2024/03/28 12:39:47;;;;;;;3.58;1.00;;;;;;;;;;5053582;28;20017;-69
2024/03/28 12:42:20;;;;;;;2.47;0.82;;;;;;;;;;5053573;28;20473;-68
2024/03/28 12:44:45;;;;;;;5.43;1.00;;;;;;;;;;5052207;28;20029;-69
2024/03/28 12:47:10;;;;;;;1.05;0.85;;;;;;;;;;5053510;28;20025;-69
2024/03/28 12:49:36;;;;;;;1.17;1.08;;;;;;;;;;5053796;28;20108;-69
2024/03/28 12:52:01;;;;;;;0.90;0.85;;;;;;;;;;5053351;28;20049;-70
2024/03/28 12:54:26;;;;;;;1.73;0.93;;;;;;;;;;5053386;28;20069;-72
2024/03/28 12:56:52;;;;;;;4.50;0.65;;;;;;;;;;5053646;28;20043;-72
2024/03/28 12:59:17;;;;;;;1.85;0.88;;;;;;;;;;5052084;28;20029;-72
2024/03/28 13:01:42;;;;;;;2.67;1.20;;;;;;;;;;5052113;28;20128;-72
2024/03/28 13:04:08;;;;;;;2.42;1.17;;;;;;;;;;5052985;28;20025;-72
2024/03/28 13:06:33;;;;;;;0.77;0.77;;;;;;;;;;5055104;28;20445;-72
2024/03/28 13:08:59;;;;;;;1.13;0.82;;;;;;;;;;5055052;28;20036;-72
2024/03/28 13:11:24;;;;;;;3.33;0.90;;;;;;;;;;5053850;28;20040;-72
2024/03/28 13:13:49;;;;;;;0.70;0.65;;;;;;;;;;5053817;28;20083;-71
2024/03/28 13:16:15;;;;;;;2.47;1.00;;;;;;;;;;5092765;23;20084;-71
2024/03/28 13:18:47;;;;;;;3.50;0.55;;;;;;;;;;4996977;28;20034;-71
2024/03/28 13:21:20;;;;;;;0.57;0.57;;;;;;;;;;4997828;28;20034;-71
2024/03/28 13:23:45;;;;;;;0.65;0.65;;;;;;;;;;4997772;28;20383;-71
2024/03/28 13:26:10;;;;;;;2.38;0.70;;;;;;;;;;4997691;28;20429;-70
2024/03/28 13:28:36;;;;;;;1.27;0.70;;;;;;;;;;5016118;23;20137;-72
2024/03/28 13:31:02;;;;;;;2.38;0.70;;;;;;;;;;5017623;28;20033;-70
2024/03/28 13:33:27;;;;;;;1.17;0.75;;;;;;;;;;5014310;28;20034;-69
2024/03/28 13:35:56;;;;;;;1.88;0.93;;;;;;;;;;5008089;28;20045;-70
2024/03/28 13:38:23;;;;;;;0.77;0.73;;;;;;;;;;5012447;28;20069;-70
2024/03/28 13:40:48;;;;;;;2.83;0.93;;;;;;;;;;5014804;28;20062;-70
2024/03/28 13:43:14;;;;;;;9.38;1.30;;;;;;;;;;5004079;28;20030;-70
2024/03/28 13:45:39;;;;;;;1.55;0.60;;;;;;;;;;5007274;28;20041;-70
2024/03/28 13:48:16;;;;;;;2.38;0.98;;;;;;;;;;5015626;28;20122;-70
2024/03/28 13:50:42;;;;;;;0.22;0.22;;;;;;;;;;5016770;28;20497;-70
2024/03/28 13:53:07;;;;;;;0.65;0.65;;;;;;;;;;5015343;28;20034;-70
2024/03/28 13:55:32;;;;;;;1.58;0.70;;;;;;;;;;5016295;28;20083;-70
2024/03/28 13:57:58;;;;;;;0.32;0.32;;;;;;;;;;5016388;28;20030;-69
2024/03/28 14:00:23;;;;;;;0.63;0.52;;;;;;;;;;5016191;28;20029;-69
2024/03/28 14:02:49;;;;;;;1.75;0.52;;;;;;;;;;5014965;28;20026;-69
2024/03/28 14:05:14;;;;;;;3.00;0.70;;;;;;;;;;5016133;28;20528;-69
2024/03/28 14:07:40;;;;;;;2.30;1.00;;;;;;;;;;5015009;28;20037;-69
2024/03/28 14:10:06;;;;;;;0.90;0.57;;;;;;;;;;5014806;28;20013;-71
2024/03/28 14:12:31;;;;;;;1.58;0.80;;;;;;;;;;5017130;28;20026;-71
2024/03/28 14:14:57;;;;;;;0.93;0.80;;;;;;;;;;5015506;28;20096;-72
2024/03/28 14:17:22;;;;;;;2.40;0.60;;;;;;;;;;5016651;28;20033;-72
2024/03/28 14:19:48;;;;;;;9.77;1.00;;;;;;;;;;5015191;28;20018;-71
2024/03/28 14:22:14;;;;;;;1.15;0.40;;;;;;;;;;5015104;28;20470;-71
2024/03/28 14:24:39;;;;;;;2.78;1.00;;;;;;;;;;5016312;28;20022;-72
2024/03/28 14:27:05;;;;;;;2.60;0.45;;;;;;;;;;5014303;28;20105;-71
2024/03/28 14:29:30;;;;;;;3.40;0.90;;;;;;;;;;5026937;28;20051;-71
2024/03/28 14:31:55;;;;;;;2.85;0.63;;;;;;;;;;5036491;28;20022;-71
2024/03/28 14:34:21;;;;;;;5.07;1.60;;;;;;;;;;5036412;28;20114;-72
2024/03/28 14:36:46;;;;;;;2.45;0.60;;;;;;;;;;5036044;28;20026;-71
2024/03/28 14:39:12;;;;;;;1.00;0.88;;;;;;;;;;5036333;28;20036;-71
2024/03/28 14:41:37;;;;;;;1.95;0.50;;;;;;;;;;5035746;28;20032;-71
2024/03/28 14:44:03;;;;;;;1.17;0.60;;;;;;;;;;5001661;28;20448;-71
2024/03/28 14:46:28;;;;;;;1.90;0.60;;;;;;;;;;5017917;28;20041;-72
2024/03/28 14:48:54;;;;;;;1.45;1.10;;;;;;;;;;5035621;28;20037;-72
2024/03/28 14:51:19;;;;;;;0.55;0.55;;;;;;;;;;5017806;28;20061;-71
2024/03/28 14:53:44;;;;;;;0.70;0.70;;;;;;;;;;5001491;28;20067;-72
2024/03/28 14:56:10;;;;;;;0.30;0.30;;;;;;;;;;5017629;28;20060;-71
2024/03/28 14:58:35;;;;;;;3.60;0.73;;;;;;;;;;5010870;28;20033;-72